map of FDK home
FDK - Airport
Location
City:  Frederick, Maryland, United States
Name:Frederick Municipal Airport
ICAO:KFDK
IATA:FDK
FAA LID:FDK

Details
Type:Airport (Airfield)
Use:Public/Civil
Latitude:3925'03"N (39.417556)
Longitude:7722'27"W (-77.374305)
Datum:WGS 1984
Elevation:306 ft (93 m)
Variation:10.74W (WMM2015 magnetic declination)
-0.01 annual change
Runways:2
Longest:5219 × 100 ft (1591 × 30.5 m), paved

Time
Time Zone:UTC-5 (DST-4)
Local Time:

Weather
METAR:KFDK 121647Z 29012G20KT 10SM SCT046 OVC090 08/M03 A2958

Related Locations
Nearby:
Farthest:MQZ: 11652 mi / 18752 km
Margaret River [Margaret River Airport], WA, AU

Find:

   beyond  
but within

Other Information
Maps:
NOTAMs:
Links:
Sources:

  
flag of United States
flag of Maryland
  

Airport Diagram

Airport diagram for FDK

Airport diagram PDF

Sectional Chart

Flight Planning
at skyvector.com

Satellite Image

Google Maps Satellite view

 

Copyright © 2004-2017 Karl L. Swartz. All rights reserved.
The Great Circle Mapper name and logo are trademarks of the Great Circle Mapper.
All other trademarks mentioned herein belong to their respective owners.
Please see credits for attibutions and further copyright information.

  Follow gcmap on Facebook Follow gcmap on Twitter Follow gcmap on Google+ GCmap on LinkedIn

hCard Microformat

Geo Microformat